createdAt,value
2024-04-14T08:02:39.897Z,13.16
2024-04-14T08:12:47.421Z,12.8
2024-04-14T08:22:54.879Z,12.9
2024-04-14T08:33:01.994Z,13.03
2024-04-14T08:43:10.027Z,13.99
2024-04-14T08:53:17.683Z,14.14
2024-04-14T09:03:24.818Z,14.54
2024-04-14T09:13:32.932Z,14.49
2024-04-14T09:23:41.421Z,14.46
2024-04-14T09:33:48.983Z,14.31
2024-04-14T09:43:56.406Z,14.6
2024-04-14T09:54:04.261Z,15.06
2024-04-14T10:04:12.065Z,15.06
2024-04-14T10:14:21.279Z,14.6
2024-04-14T10:24:28.633Z,14.66
2024-04-14T10:34:36.336Z,14.86
2024-04-14T10:44:46.880Z,15.42
2024-04-14T10:54:56.519Z,15.92
2024-04-14T11:05:04.964Z,15.64
2024-04-14T11:15:12.733Z,17.03
2024-04-14T11:25:20.537Z,17.71
2024-04-14T11:35:29.024Z,20.14
2024-04-14T11:45:37.404Z,19.16
2024-04-14T11:55:45.570Z,22.16
2024-04-14T12:05:53.222Z,19.26
2024-04-14T12:16:00.623Z,21.05
2024-04-14T12:26:09.307Z,19.38
2024-04-14T12:36:16.435Z,29.19
2024-04-14T12:46:25.151Z,26.53
2024-04-14T12:56:34.405Z,26.4
2024-04-14T13:06:40.719Z,24.83
2024-04-14T13:16:50.583Z,25.04
2024-04-14T13:26:59.287Z,29.42
2024-04-14T13:37:06.877Z,24.34
2024-04-14T13:47:15.246Z,26.29
2024-04-14T13:57:23.244Z,27.46
2024-04-14T14:07:31.206Z,30.09
2024-04-14T14:17:39.507Z,33.09
2024-04-14T14:27:48.064Z,27.58
2024-04-14T14:37:56.027Z,28.38
2024-04-14T14:48:10.371Z,29.85
2024-04-14T14:58:18.607Z,27.15
2024-04-14T15:08:26.357Z,29.74
2024-04-14T15:18:33.957Z,26.12
2024-04-14T15:28:41.659Z,30.26
2024-04-14T15:38:50.305Z,27.62
2024-04-14T15:48:57.516Z,27.2
2024-04-14T15:59:05.732Z,25.58
2024-04-14T16:09:13.745Z,27.03
2024-04-14T16:19:20.407Z,20.22
2024-04-14T16:29:27.105Z,15.4
2024-04-14T16:39:32.593Z,14.67
2024-04-14T16:49:38.691Z,14.16
2024-04-14T16:59:45.268Z,13.42
2024-04-14T17:09:51.880Z,13.2
2024-04-14T17:19:59.191Z,12.46
2024-04-14T17:30:05.737Z,11.98
2024-04-14T17:40:12.769Z,11.56
2024-04-14T17:50:20.528Z,11.08
2024-04-14T18:00:27.432Z,11
2024-04-14T18:10:34.461Z,10.61
2024-04-14T18:20:42.819Z,10.32
2024-04-14T18:30:54.695Z,10.18
2024-04-14T18:41:01.940Z,10.28
2024-04-14T18:51:08.485Z,9.92
2024-04-14T19:01:15.532Z,9.87
2024-04-14T19:11:23.137Z,9.82
2024-04-14T19:21:31.025Z,9.8
2024-04-14T19:31:38.320Z,9.8
2024-04-14T19:41:46.030Z,9.76
2024-04-14T19:51:52.878Z,9.63
2024-04-14T20:02:00.782Z,9.61
2024-04-14T20:12:08.863Z,9.59
2024-04-14T20:22:16.392Z,9.63
2024-04-14T20:32:23.983Z,9.49
2024-04-14T20:42:31.603Z,9.4
2024-04-14T20:52:38.641Z,9.33
2024-04-14T21:02:46.103Z,9.17
2024-04-14T21:12:53.070Z,9.02
2024-04-14T21:23:01.400Z,9.18
2024-04-14T21:33:08.152Z,9.03
2024-04-14T21:43:16.347Z,8.98
2024-04-14T21:53:23.827Z,8.94
